F/V Carmalia — FMFK — position and weather

sailwx.info

Track history (hours):
 
Tides and Currents Weather Stations Pressure Air Temp Water Temp Dewpoint Dewpoint Depression Visibility Wind Speed Wind Dir Waves Ship Positions

F/V Carmalia

Last reported at 2016-Dec-06 07:27 UTC. Time now 2016-Dec-06 08:21 UTC.
Position N 48°26' W 005°03'.

Length 17 m.

Type: Fishing. MMSI: 228222900.

Date/timePositionNaut miles runAvg speedWind from/ knotsBaromVisibWave heightAir tempDewpointWater temp
2016-Dec-06 07:27N 48°26' W 005°03'7 7.9
2016-Dec-06 06:33N 48°30' W 004°55'8 7.7
2016-Dec-06 05:33N 48°36' W 004°47'8 7.9
2016-Dec-06 04:30N 48°41' W 004°37'124 3.3
2016-Dec-04 14:16N 49°44' W 001°53'811.6
2016-Dec-04 13:33N 49°41' W 001°42'4 4.0
2016-Dec-04 12:34N 49°38' W 001°37'0 0.1
2016-Dec-04 11:33N 49°39' W 001°37'0 0.0
2016-Dec-04 10:34N 49°39' W 001°37'1 1.1
2016-Dec-04 09:34N 49°40' W 001°37'9 9.0
2016-Dec-04 08:34N 49°44' W 001°49'  
2016-Dec-01 06:29N 49°56' W 001°54'6 6.4
2016-Dec-01 05:33N 49°57' W 001°45'9 8.6
2016-Dec-01 04:33N 49°59' W 001°32'10 9.8
2016-Dec-01 03:33N 50°01' W 001°17'31 6.9
2016-Nov-30 23:04N 49°59' W 000°29'4 6.2
2016-Nov-30 22:29N 49°59' W 000°23'24 3.8
2016-Nov-30 16:14N 49°55' W 000°60'5 7.3
2016-Nov-30 15:33N 49°53' W 001°06'7 7.0
2016-Nov-30 14:33N 49°49' W 001°16'6 6.0
2016-Nov-30 13:33N 49°46' W 001°24'7 6.8
2016-Nov-30 12:33N 49°42' W 001°32'5 4.8
2016-Nov-30 11:33N 49°39' W 001°37'0 0.1
2016-Nov-30 10:33N 49°38' W 001°37'0 0.0
2016-Nov-30 09:33N 49°38' W 001°37'0 0.0
2016-Nov-30 08:34N 49°38' W 001°37'0 0.0
2016-Nov-30 07:33N 49°38' W 001°37'0 0.1
2016-Nov-30 06:33N 49°39' W 001°37'6 6.4
2016-Nov-30 05:33N 49°45' W 001°39'3 2.9
2016-Nov-30 04:33N 49°46' W 001°35'1 1.2
2016-Nov-30 03:33N 49°48' W 001°34'1 0.8
2016-Nov-30 02:33N 49°47' W 001°36'0 0.2
2016-Nov-30 01:33N 49°48' W 001°36'0 0.4
2016-Nov-30 00:34N 49°47' W 001°36'1 1.2
2016-Nov-29 23:33N 49°47' W 001°35'2 2.5
2016-Nov-29 22:33N 49°45' W 001°32'1 1.2
2016-Nov-29 21:33N 49°45' W 001°34'1 0.7
2016-Nov-29 20:33N 49°45' W 001°34'1 0.8
2016-Nov-29 19:33N 49°45' W 001°32'1 0.6
2016-Nov-29 18:33N 49°45' W 001°32'4 4.4
2016-Nov-29 17:34N 49°44' W 001°38'1 1.2
2016-Nov-29 16:33N 49°44' W 001°40'4 3.8
2016-Nov-29 15:33N 49°46' W 001°35'8 7.8
2016-Nov-29 14:33N 49°50' W 001°25'8 7.6
2016-Nov-29 13:33N 49°54' W 001°15'8 8.3
2016-Nov-29 12:33N 49°59' W 001°04'4 0.9
2016-Nov-29 08:28N 50°01' W 000°59'3 2.6
2016-Nov-29 07:30N 50°01' W 001°03'2 2.4
2016-Nov-29 06:30N 50°01' W 001°07'5 0.8
2016-Nov-29 00:33N 49°59' W 001°00'2 1.9
2016-Nov-28 23:33N 49°57' W 001°01'3 2.6
2016-Nov-28 22:33N 49°56' W 001°05'4 3.8
2016-Nov-28 21:33N 49°55' W 001°11'5 5.1
2016-Nov-28 20:34N 49°55' W 001°19'6 5.6
2016-Nov-28 19:33N 49°54' W 001°27'6 6.0
2016-Nov-28 18:33N 49°53' W 001°36'5 5.2
2016-Nov-28 17:33N 49°52' W 001°44'2 1.9
2016-Nov-28 16:33N 49°51' W 001°46'3 2.5
2016-Nov-28 15:33N 49°50' W 001°50'3 3.0
2016-Nov-28 14:33N 49°50' W 001°54'2 1.7
2016-Nov-28 13:33N 49°50' W 001°57'1 1.1
2016-Nov-28 12:33N 49°50' W 001°59'0 0.1
2016-Nov-28 11:32N 49°50' W 001°59'1 0.8
2016-Nov-28 10:33N 49°50' W 001°58'  
Track history (hours):
 
Tides and Currents Weather Stations Pressure Air Temp Water Temp Dewpoint Dewpoint Depression Visibility Wind Speed Wind Dir Waves Ship Positions

F/V Carmalia

Last reported at 2016-Dec-06 07:27 UTC. Time now 2016-Dec-06 08:21 UTC.
Position N 48°26' W 005°03'.

Length 17 m.

Type: Fishing. MMSI: 228222900.

Date/timePositionNaut miles runAvg speedWind from/ knotsBaromVisibWave heightAir tempDewpointWater temp
2016-Dec-06 07:27N 48°26' W 005°03'7 7.9
2016-Dec-06 06:33N 48°30' W 004°55'8 7.7
2016-Dec-06 05:33N 48°36' W 004°47'8 7.9
2016-Dec-06 04:30N 48°41' W 004°37'124 3.3
2016-Dec-04 14:16N 49°44' W 001°53'811.6
2016-Dec-04 13:33N 49°41' W 001°42'4 4.0
2016-Dec-04 12:34N 49°38' W 001°37'0 0.1
2016-Dec-04 11:33N 49°39' W 001°37'0 0.0
2016-Dec-04 10:34N 49°39' W 001°37'1 1.1
2016-Dec-04 09:34N 49°40' W 001°37'9 9.0
2016-Dec-04 08:34N 49°44' W 001°49'  
2016-Dec-01 06:29N 49°56' W 001°54'6 6.4
2016-Dec-01 05:33N 49°57' W 001°45'9 8.6
2016-Dec-01 04:33N 49°59' W 001°32'10 9.8
2016-Dec-01 03:33N 50°01' W 001°17'31 6.9
2016-Nov-30 23:04N 49°59' W 000°29'4 6.2
2016-Nov-30 22:29N 49°59' W 000°23'24 3.8
2016-Nov-30 16:14N 49°55' W 000°60'5 7.3
2016-Nov-30 15:33N 49°53' W 001°06'7 7.0
2016-Nov-30 14:33N 49°49' W 001°16'6 6.0
2016-Nov-30 13:33N 49°46' W 001°24'7 6.8
2016-Nov-30 12:33N 49°42' W 001°32'5 4.8
2016-Nov-30 11:33N 49°39' W 001°37'0 0.1
2016-Nov-30 10:33N 49°38' W 001°37'0 0.0
2016-Nov-30 09:33N 49°38' W 001°37'0 0.0
2016-Nov-30 08:34N 49°38' W 001°37'0 0.0
2016-Nov-30 07:33N 49°38' W 001°37'0 0.1
2016-Nov-30 06:33N 49°39' W 001°37'6 6.4
2016-Nov-30 05:33N 49°45' W 001°39'3 2.9
2016-Nov-30 04:33N 49°46' W 001°35'1 1.2
2016-Nov-30 03:33N 49°48' W 001°34'1 0.8
2016-Nov-30 02:33N 49°47' W 001°36'0 0.2
2016-Nov-30 01:33N 49°48' W 001°36'0 0.4
2016-Nov-30 00:34N 49°47' W 001°36'1 1.2
2016-Nov-29 23:33N 49°47' W 001°35'2 2.5
2016-Nov-29 22:33N 49°45' W 001°32'1 1.2
2016-Nov-29 21:33N 49°45' W 001°34'1 0.7
2016-Nov-29 20:33N 49°45' W 001°34'1 0.8
2016-Nov-29 19:33N 49°45' W 001°32'1 0.6
2016-Nov-29 18:33N 49°45' W 001°32'4 4.4
2016-Nov-29 17:34N 49°44' W 001°38'1 1.2
2016-Nov-29 16:33N 49°44' W 001°40'4 3.8
2016-Nov-29 15:33N 49°46' W 001°35'8 7.8
2016-Nov-29 14:33N 49°50' W 001°25'8 7.6
2016-Nov-29 13:33N 49°54' W 001°15'8 8.3
2016-Nov-29 12:33N 49°59' W 001°04'4 0.9
2016-Nov-29 08:28N 50°01' W 000°59'3 2.6
2016-Nov-29 07:30N 50°01' W 001°03'2 2.4
2016-Nov-29 06:30N 50°01' W 001°07'5 0.8
2016-Nov-29 00:33N 49°59' W 001°00'2 1.9
2016-Nov-28 23:33N 49°57' W 001°01'3 2.6
2016-Nov-28 22:33N 49°56' W 001°05'4 3.8
2016-Nov-28 21:33N 49°55' W 001°11'5 5.1
2016-Nov-28 20:34N 49°55' W 001°19'6 5.6
2016-Nov-28 19:33N 49°54' W 001°27'6 6.0
2016-Nov-28 18:33N 49°53' W 001°36'5 5.2
2016-Nov-28 17:33N 49°52' W 001°44'2 1.9
2016-Nov-28 16:33N 49°51' W 001°46'3 2.5
2016-Nov-28 15:33N 49°50' W 001°50'3 3.0
2016-Nov-28 14:33N 49°50' W 001°54'2 1.7
2016-Nov-28 13:33N 49°50' W 001°57'1 1.1
2016-Nov-28 12:33N 49°50' W 001°59'0 0.1
2016-Nov-28 11:32N 49°50' W 001°59'1 0.8
2016-Nov-28 10:33N 49°50' W 001°58'  

Dump ship's entire track history